createdAt,value
2023-04-14T00:01:35.451Z,84.00
2023-04-14T00:04:02.565Z,84.10
2023-04-14T00:06:29.714Z,84.30
2023-04-14T00:08:59.861Z,84.40
2023-04-14T00:11:29.498Z,84.50
2023-04-14T00:13:59.568Z,84.60
2023-04-14T00:16:26.629Z,84.60
2023-04-14T00:18:53.597Z,84.70
2023-04-14T00:21:23.632Z,84.80
2023-04-14T00:23:50.905Z,84.90
2023-04-14T00:26:18.276Z,85.00
2023-04-14T00:28:45.695Z,85.10
2023-04-14T00:31:12.877Z,85.20
2023-04-14T00:33:40.019Z,85.30
2023-04-14T00:36:07.337Z,85.30
2023-04-14T00:38:34.344Z,85.50
2023-04-14T00:41:01.867Z,85.50
2023-04-14T00:43:31.366Z,85.60
2023-04-14T00:45:58.954Z,85.60
2023-04-14T00:48:26.129Z,85.80
2023-04-14T00:50:53.201Z,85.80
2023-04-14T00:53:20.484Z,85.90
2023-04-14T00:55:47.871Z,86.10
2023-04-14T00:58:17.789Z,86.10
2023-04-14T01:00:45.747Z,86.20
2023-04-14T01:03:15.401Z,86.40
2023-04-14T01:05:42.435Z,86.50
2023-04-14T01:08:09.426Z,86.60
2023-04-14T01:10:44.908Z,86.60
2023-04-14T01:13:35.463Z,86.80
2023-04-14T01:16:14.978Z,86.90
2023-04-14T01:19:00.910Z,87.00
2023-04-14T01:21:35.544Z,87.00
2023-04-14T01:24:11.408Z,87.20
2023-04-14T01:26:39.195Z,87.20
2023-04-14T01:29:31.428Z,87.20
2023-04-14T01:32:09.774Z,87.30
2023-04-14T01:34:49.628Z,87.40
2023-04-14T01:37:30.185Z,87.50
2023-04-14T01:40:03.266Z,87.70
2023-04-14T01:42:35.414Z,87.70
2023-04-14T01:45:15.466Z,87.80
2023-04-14T01:47:45.353Z,87.90
2023-04-14T01:50:13.339Z,88.00
2023-04-14T01:52:42.832Z,88.10
2023-04-14T01:55:11.650Z,88.20
2023-04-14T01:57:44.185Z,88.20
2023-04-14T02:00:13.124Z,88.30
2023-04-14T02:10:07.739Z,88.50
2023-04-14T02:12:39.827Z,88.50
2023-04-14T02:15:07.951Z,88.60
2023-04-14T02:17:36.025Z,88.80
2023-04-14T02:20:03.409Z,88.90
2023-04-14T02:22:30.794Z,89.00
2023-04-14T02:25:00.579Z,89.10
2023-04-14T02:27:38.714Z,89.10
2023-04-14T02:30:13.873Z,89.20
2023-04-14T02:32:45.896Z,89.20
2023-04-14T02:35:21.756Z,89.30
2023-04-14T02:37:53.998Z,89.40
2023-04-14T02:40:27.316Z,89.50
2023-04-14T02:43:01.510Z,89.60
2023-04-14T02:45:32.654Z,89.60
2023-04-14T02:48:15.191Z,89.70
2023-04-14T02:50:53.004Z,89.80
2023-04-14T02:53:25.207Z,89.90
2023-04-14T02:56:01.793Z,89.90
2023-04-14T02:58:34.325Z,90.00
2023-04-14T03:01:02.099Z,90.00
2023-04-14T03:03:30.560Z,90.00
2023-04-14T03:05:59.325Z,90.00
2023-04-14T03:08:28.074Z,90.00
2023-04-14T03:10:56.224Z,90.10
2023-04-14T03:13:27.678Z,90.10
2023-04-14T03:15:56.304Z,90.10
2023-04-14T03:18:25.560Z,90.10
2023-04-14T03:20:57.797Z,90.20
2023-04-14T03:23:25.937Z,90.20
2023-04-14T03:26:01.546Z,90.20
2023-04-14T03:28:32.615Z,90.20
2023-04-14T03:31:05.253Z,90.30
2023-04-14T03:33:43.801Z,90.30
2023-04-14T03:36:16.139Z,90.30
2023-04-14T03:38:45.907Z,90.40
2023-04-14T03:41:14.729Z,90.40
2023-04-14T03:43:42.942Z,90.40
2023-04-14T03:46:14.587Z,90.40
2023-04-14T03:48:46.657Z,90.50
2023-04-14T03:51:17.164Z,90.50
2023-04-14T03:53:46.818Z,90.50
2023-04-14T03:56:17.413Z,90.50
2023-04-14T03:58:50.734Z,90.60
2023-04-14T04:01:25.732Z,90.60
2023-04-14T04:03:59.531Z,90.60
2023-04-14T04:06:27.604Z,90.70
2023-04-14T04:08:59.073Z,90.70
2023-04-14T04:11:28.927Z,90.70
2023-04-14T04:13:57.685Z,90.70
2023-04-14T04:16:27.786Z,90.80
2023-04-14T04:18:55.655Z,90.80
2023-04-14T04:21:31.797Z,90.80
2023-04-14T04:24:01.970Z,90.80
2023-04-14T04:26:30.014Z,90.90
2023-04-14T04:28:58.275Z,90.90
2023-04-14T04:31:29.013Z,90.90
2023-04-14T04:33:58.506Z,90.90
2023-04-14T04:36:31.782Z,91.00
2023-04-14T04:38:59.555Z,91.00
2023-04-14T04:41:30.195Z,91.00
2023-04-14T04:44:00.319Z,91.00
2023-04-14T04:46:42.992Z,91.00
2023-04-14T04:49:10.503Z,91.10
2023-04-14T04:51:38.722Z,91.10
2023-04-14T04:54:06.626Z,91.10
2023-04-14T04:56:34.019Z,91.10
2023-04-14T04:59:01.755Z,91.10
2023-04-14T05:01:32.141Z,91.10
2023-04-14T05:03:59.274Z,91.10
2023-04-14T05:06:26.645Z,91.10
2023-04-14T05:08:54.815Z,91.20
2023-04-14T05:11:22.428Z,91.10
2023-04-14T05:13:49.417Z,91.10
2023-04-14T05:16:17.237Z,91.10
2023-04-14T05:18:44.497Z,91.40
2023-04-14T05:21:13.989Z,91.10
2023-04-14T05:23:43.648Z,91.20
2023-04-14T05:26:39.046Z,91.20
2023-04-14T05:29:01.923Z,91.20
2023-04-14T05:31:29.530Z,91.20
2023-04-14T05:33:56.504Z,91.20
2023-04-14T05:36:23.484Z,91.10
2023-04-14T05:38:50.512Z,91.10
2023-04-14T05:41:17.457Z,91.00
2023-04-14T05:43:44.744Z,91.00
2023-04-14T05:46:11.816Z,90.90
2023-04-14T05:48:39.061Z,90.90
2023-04-14T05:51:06.403Z,90.80
2023-04-14T05:53:33.465Z,90.70
2023-04-14T05:56:00.567Z,90.70
2023-04-14T05:58:27.586Z,90.60
2023-04-14T06:00:54.532Z,90.50
2023-04-14T06:03:21.673Z,90.50
2023-04-14T06:05:48.784Z,90.40
2023-04-14T06:08:15.767Z,90.40
2023-04-14T06:10:42.932Z,90.40
2023-04-14T06:13:10.032Z,90.30
2023-04-14T06:15:37.670Z,90.20
2023-04-14T06:18:04.752Z,90.20
2023-04-14T06:20:32.613Z,90.10
2023-04-14T06:23:01.056Z,90.10
2023-04-14T06:25:28.158Z,90.00
2023-04-14T06:27:55.341Z,90.00
2023-04-14T06:30:22.704Z,89.90
2023-04-14T06:32:54.353Z,89.70
2023-04-14T06:35:32.283Z,89.60
2023-04-14T06:38:01.018Z,89.50
2023-04-14T06:40:28.510Z,89.40
2023-04-14T06:42:55.568Z,89.30
2023-04-14T06:45:22.568Z,89.10
2023-04-14T06:47:49.549Z,89.00
2023-04-14T06:50:16.755Z,88.90
2023-04-14T06:52:43.655Z,88.70
2023-04-14T06:55:10.890Z,88.60
2023-04-14T06:57:37.904Z,88.50
2023-04-14T07:00:08.461Z,88.40
2023-04-14T07:02:35.574Z,88.30
2023-04-14T07:05:02.974Z,88.20
2023-04-14T07:07:30.314Z,88.20
2023-04-14T07:09:59.200Z,88.20
2023-04-14T07:12:26.195Z,88.10
2023-04-14T07:14:53.345Z,88.00
2023-04-14T07:17:20.388Z,87.80
2023-04-14T07:19:47.458Z,87.70
2023-04-14T07:22:14.609Z,87.50
2023-04-14T07:24:41.657Z,87.40
2023-04-14T07:27:15.640Z,87.30
2023-04-14T07:29:43.060Z,87.10
2023-04-14T07:32:13.508Z,87.00
2023-04-14T07:34:44.081Z,86.80
2023-04-14T07:37:11.579Z,86.70
2023-04-14T07:39:38.936Z,86.50
2023-04-14T07:42:06.768Z,86.40
2023-04-14T07:44:33.886Z,86.30
2023-04-14T07:47:01.043Z,86.20
2023-04-14T07:49:29.207Z,86.00
2023-04-14T07:51:56.991Z,85.90
2023-04-14T07:54:24.588Z,85.70
2023-04-14T07:56:51.702Z,85.60
2023-04-14T07:59:18.774Z,85.40
2023-04-14T08:01:45.853Z,85.30
2023-04-14T08:04:15.552Z,85.20
2023-04-14T08:06:42.703Z,85.10
2023-04-14T08:09:09.970Z,85.00
2023-04-14T08:11:36.979Z,84.80
2023-04-14T08:14:04.740Z,84.70
2023-04-14T08:16:36.637Z,84.50
2023-04-14T08:19:05.149Z,84.40
2023-04-14T08:21:32.537Z,84.20
2023-04-14T08:23:59.592Z,84.10
2023-04-14T08:26:27.588Z,84.10
2023-04-14T08:28:54.775Z,83.90
2023-04-14T08:31:27.253Z,83.70
2023-04-14T08:33:54.456Z,83.60
2023-04-14T08:36:21.640Z,83.40
2023-04-14T08:38:48.776Z,83.20
2023-04-14T08:41:19.635Z,83.00
2023-04-14T08:43:47.018Z,83.20
2023-04-14T08:46:16.095Z,82.00
2023-04-14T08:48:47.794Z,82.00
2023-04-14T08:51:22.198Z,81.90
2023-04-14T08:53:49.671Z,81.70
2023-04-14T08:56:18.738Z,81.50
2023-04-14T08:58:47.632Z,80.80
2023-04-14T09:01:15.008Z,80.60
2023-04-14T09:03:43.721Z,80.20
2023-04-14T09:06:11.989Z,80.00
2023-04-14T09:08:39.118Z,80.10
2023-04-14T09:11:06.449Z,80.10
2023-04-14T09:13:34.084Z,79.80
2023-04-14T09:16:01.924Z,79.60
2023-04-14T09:18:29.557Z,79.30
2023-04-14T09:21:50.123Z,79.20
2023-04-14T09:23:47.969Z,79.10
2023-04-14T09:26:15.259Z,79.30
2023-04-14T09:28:42.422Z,78.60
2023-04-14T09:31:10.655Z,78.40
2023-04-14T09:33:44.770Z,78.40
2023-04-14T09:36:19.790Z,78.10
2023-04-14T09:38:47.208Z,77.10
2023-04-14T09:41:25.988Z,77.40
2023-04-14T09:43:53.190Z,76.90
2023-04-14T09:46:20.849Z,76.80
2023-04-14T09:48:55.878Z,76.60
2023-04-14T09:51:30.423Z,76.40
2023-04-14T09:54:05.301Z,76.30
2023-04-14T09:56:32.741Z,75.90
2023-04-14T09:59:02.474Z,75.50
2023-04-14T10:01:32.472Z,73.90
2023-04-14T10:04:01.979Z,73.40
2023-04-14T10:06:32.412Z,73.10
2023-04-14T10:09:00.823Z,72.80
2023-04-14T10:11:30.161Z,72.80
2023-04-14T10:13:59.412Z,72.80
2023-04-14T10:16:29.810Z,72.50
2023-04-14T10:18:58.641Z,72.00
2023-04-14T10:21:28.150Z,71.60
2023-04-14T10:23:58.520Z,70.70
2023-04-14T10:26:26.638Z,68.50
2023-04-14T10:28:55.714Z,68.00
2023-04-14T10:31:45.973Z,67.40
2023-04-14T10:34:14.753Z,67.20
2023-04-14T10:36:43.585Z,67.50
2023-04-14T10:39:13.307Z,67.60
2023-04-14T10:41:47.351Z,68.50
2023-04-14T10:44:29.166Z,68.50
2023-04-14T10:46:57.601Z,68.40
2023-04-14T10:49:49.416Z,69.00
2023-04-14T10:52:16.863Z,68.60
2023-04-14T10:54:52.690Z,67.80
2023-04-14T10:57:23.633Z,67.70
2023-04-14T11:00:00.644Z,68.50
2023-04-14T11:02:35.258Z,67.60
2023-04-14T11:05:08.982Z,67.00
2023-04-14T11:07:45.453Z,66.80
2023-04-14T11:10:21.580Z,66.20
2023-04-14T11:12:55.475Z,66.30
2023-04-14T11:15:22.729Z,66.60
2023-04-14T11:17:50.957Z,67.00
2023-04-14T11:20:20.467Z,66.60
2023-04-14T11:22:49.409Z,66.60
2023-04-14T11:25:24.764Z,66.40
2023-04-14T11:28:03.584Z,65.70
2023-04-14T11:30:31.749Z,64.90
2023-04-14T11:32:59.035Z,64.90
2023-04-14T11:35:31.759Z,63.40
2023-04-14T11:38:00.558Z,62.50
2023-04-14T11:40:31.335Z,61.00
2023-04-14T11:43:02.487Z,59.50
2023-04-14T11:45:30.432Z,58.20
2023-04-14T11:48:02.127Z,57.70
2023-04-14T11:50:32.609Z,57.20
2023-04-14T11:53:00.806Z,57.50
2023-04-14T11:55:36.589Z,57.90
2023-04-14T11:58:06.944Z,58.20
2023-04-14T12:00:34.256Z,58.70
2023-04-14T12:03:05.286Z,58.40
2023-04-14T12:05:33.986Z,58.00
2023-04-14T12:08:07.677Z,57.50
2023-04-14T12:10:39.330Z,57.10
2023-04-14T12:13:10.758Z,57.10
2023-04-14T12:15:40.757Z,57.60
2023-04-14T12:18:14.718Z,59.10
2023-04-14T12:20:47.327Z,60.10
2023-04-14T12:23:16.096Z,61.20
2023-04-14T12:25:43.392Z,61.90
2023-04-14T12:28:14.836Z,62.40
2023-04-14T12:30:51.839Z,62.50
2023-04-14T12:33:23.722Z,62.60
2023-04-14T12:35:51.629Z,62.60
2023-04-14T12:38:19.091Z,62.30
2023-04-14T12:40:54.991Z,62.10
2023-04-14T12:43:51.069Z,62.00
2023-04-14T12:46:30.467Z,61.80
2023-04-14T12:50:19.720Z,61.40
2023-04-14T12:53:11.951Z,61.40
2023-04-14T12:55:48.723Z,61.80
2023-04-14T12:58:26.289Z,61.80
2023-04-14T13:00:56.670Z,61.70
2023-04-14T13:04:19.668Z,61.50
2023-04-14T13:07:03.566Z,61.10
2023-04-14T13:09:36.429Z,61.10
2023-04-14T13:12:17.157Z,60.80
2023-04-14T13:35:41.471Z,60.90
2023-04-14T13:38:37.341Z,61.10
2023-04-14T13:45:47.472Z,60.90
2023-04-14T13:52:24.615Z,60.80
2023-04-14T13:54:55.963Z,61.00
2023-04-14T14:02:44.496Z,60.80
2023-04-14T14:05:12.177Z,60.80
2023-04-14T14:07:45.214Z,61.00
2023-04-14T14:10:14.927Z,60.80
2023-04-14T14:12:42.313Z,60.70
2023-04-14T14:15:10.100Z,60.50
2023-04-14T14:17:37.426Z,60.40
2023-04-14T14:20:20.674Z,58.60
2023-04-14T14:22:48.026Z,58.60
2023-04-14T14:25:19.668Z,58.80
2023-04-14T14:27:50.296Z,58.90
2023-04-14T14:30:17.456Z,58.90
2023-04-14T14:32:44.633Z,58.90
2023-04-14T14:35:11.816Z,58.80
2023-04-14T14:37:42.168Z,58.60
2023-04-14T14:40:10.124Z,58.50
2023-04-14T14:42:37.652Z,55.30
2023-04-14T14:45:06.855Z,53.90
2023-04-14T14:47:34.146Z,52.20
2023-04-14T14:50:05.871Z,50.90
2023-04-14T14:52:34.685Z,50.10
2023-04-14T14:55:04.008Z,49.50
2023-04-14T14:57:31.789Z,48.80
2023-04-14T14:59:59.113Z,48.20
2023-04-14T15:02:26.331Z,47.80
2023-04-14T15:04:54.643Z,47.50
2023-04-14T15:07:21.798Z,47.00
2023-04-14T15:09:49.904Z,46.60
2023-04-14T15:12:17.659Z,45.80
2023-04-14T15:14:46.881Z,45.70
2023-04-14T15:17:13.984Z,45.20
2023-04-14T15:19:42.118Z,44.70
2023-04-14T15:22:10.169Z,45.10
2023-04-14T15:24:37.668Z,44.10
2023-04-14T15:27:04.903Z,43.80
2023-04-14T15:29:32.061Z,43.70
2023-04-14T15:32:02.300Z,43.10
2023-04-14T15:35:12.688Z,42.90
2023-04-14T15:37:51.000Z,42.60
2023-04-14T15:40:18.282Z,42.80
2023-04-14T15:42:45.704Z,42.80
2023-04-14T15:45:16.053Z,42.40
2023-04-14T15:47:43.235Z,42.10
2023-04-14T15:50:11.982Z,41.80
2023-04-14T15:52:40.080Z,41.30
2023-04-14T15:55:07.913Z,41.40
2023-04-14T15:57:34.989Z,41.30
2023-04-14T16:00:04.583Z,41.00
2023-04-14T16:02:40.036Z,40.70
2023-04-14T16:05:08.143Z,40.30
2023-04-14T16:07:39.232Z,39.80
2023-04-14T16:10:08.600Z,39.60
2023-04-14T16:12:36.682Z,39.30
2023-04-14T16:15:07.753Z,39.10
2023-04-14T16:17:35.036Z,38.70
2023-04-14T16:20:02.930Z,38.60
2023-04-14T16:22:31.508Z,38.10
2023-04-14T16:25:13.785Z,38.10
2023-04-14T16:28:11.544Z,38.80
2023-04-14T16:30:39.300Z,38.30
2023-04-14T16:33:29.942Z,38.60
2023-04-14T16:36:15.322Z,38.70
2023-04-14T16:38:50.548Z,39.80
2023-04-14T16:41:38.384Z,41.90
2023-04-14T16:44:05.830Z,43.30
2023-04-14T16:46:33.020Z,42.80
2023-04-14T16:49:00.812Z,42.90
2023-04-14T16:51:28.511Z,43.80
2023-04-14T16:53:56.366Z,44.60
2023-04-14T16:56:24.234Z,45.20
2023-04-14T16:59:24.787Z,45.60
2023-04-14T17:02:05.810Z,45.80
2023-04-14T17:04:58.978Z,46.00
2023-04-14T17:07:26.197Z,46.20
2023-04-14T17:09:54.290Z,46.40
2023-04-14T17:12:22.470Z,46.20
2023-04-14T17:14:49.530Z,46.10
2023-04-14T17:17:16.752Z,46.40
2023-04-14T17:19:43.813Z,47.00
2023-04-14T17:22:12.199Z,47.40
2023-04-14T17:24:39.981Z,47.80
2023-04-14T17:27:07.254Z,47.90
2023-04-14T17:29:34.404Z,48.10
2023-04-14T17:32:02.347Z,48.30
2023-04-14T17:34:29.853Z,48.40
2023-04-14T17:36:57.485Z,48.60
2023-04-14T17:39:28.490Z,48.90
2023-04-14T17:41:58.465Z,49.00
2023-04-14T17:44:34.545Z,49.20
2023-04-14T17:47:03.363Z,49.30
2023-04-14T17:49:34.231Z,49.50
2023-04-14T17:52:18.624Z,50.20
2023-04-14T17:54:46.643Z,49.70
2023-04-14T17:57:17.354Z,49.80
2023-04-14T17:59:45.040Z,49.80
2023-04-14T18:02:16.417Z,50.00
2023-04-14T18:04:45.776Z,50.10
2023-04-14T18:07:13.424Z,50.30
2023-04-14T18:09:42.686Z,50.50
2023-04-14T18:12:12.231Z,50.70
2023-04-14T18:14:39.587Z,50.90
2023-04-14T18:17:06.773Z,51.20
2023-04-14T18:19:38.893Z,51.40
2023-04-14T18:22:05.905Z,51.70
2023-04-14T18:29:38.811Z,52.60
2023-04-14T18:32:05.760Z,52.80
2023-04-14T18:37:26.427Z,53.20
2023-04-14T18:39:56.881Z,53.50
2023-04-14T18:42:30.539Z,53.70
2023-04-14T18:45:02.402Z,53.80
2023-04-14T18:47:33.214Z,54.00
2023-04-14T18:50:00.566Z,54.20
2023-04-14T18:52:37.204Z,54.30
2023-04-14T18:55:10.109Z,54.40
2023-04-14T18:57:38.396Z,54.70
2023-04-14T19:00:18.849Z,54.90
2023-04-14T19:03:06.114Z,55.00
2023-04-14T19:05:35.301Z,55.10
2023-04-14T19:08:03.106Z,55.50
2023-04-14T19:10:30.957Z,55.70
2023-04-14T19:12:58.389Z,55.70
2023-04-14T19:15:28.655Z,55.90
2023-04-14T19:17:56.096Z,55.90
2023-04-14T19:20:24.307Z,56.00
2023-04-14T19:22:51.659Z,56.10
2023-04-14T19:25:18.802Z,56.30
2023-04-14T19:27:46.221Z,56.40
2023-04-14T19:30:13.926Z,56.60
2023-04-14T19:32:42.061Z,56.80
2023-04-14T19:35:11.178Z,57.00
2023-04-14T19:37:38.631Z,57.30
2023-04-14T19:40:06.923Z,57.50
2023-04-14T19:42:39.513Z,57.80
2023-04-14T19:45:08.084Z,57.80
2023-04-14T19:52:22.578Z,58.10
2023-04-14T19:54:49.998Z,58.50
2023-04-14T19:57:29.649Z,58.70
2023-04-14T20:00:19.987Z,58.80
2023-04-14T20:02:51.671Z,58.90
2023-04-14T20:05:56.946Z,59.20
2023-04-14T20:08:41.314Z,59.30
2023-04-14T20:11:53.638Z,59.30
2023-04-14T20:35:49.173Z,59.90
2023-04-14T20:38:55.946Z,60.20
2023-04-14T20:41:33.858Z,60.40
2023-04-14T20:44:23.694Z,60.70
2023-04-14T20:47:23.777Z,60.90
2023-04-14T20:53:52.806Z,61.30
2023-04-14T20:59:32.640Z,61.50
2023-04-14T21:01:59.967Z,61.60
2023-04-14T21:04:45.491Z,61.70
2023-04-14T21:12:15.751Z,61.70
2023-04-14T21:15:28.893Z,62.00
2023-04-14T21:17:31.755Z,62.20
2023-04-14T21:19:58.943Z,62.30
2023-04-14T21:22:27.823Z,62.50
2023-04-14T21:24:55.331Z,62.60
2023-04-14T21:27:22.649Z,62.70
2023-04-14T21:32:49.928Z,62.90
2023-04-14T21:35:19.679Z,63.10
2023-04-14T21:37:48.980Z,63.20
2023-04-14T21:40:22.878Z,63.30
2023-04-14T21:42:55.465Z,63.40
2023-04-14T21:45:22.833Z,63.40
2023-04-14T21:51:03.583Z,63.60
2023-04-14T21:58:12.254Z,63.60
2023-04-14T22:01:00.362Z,63.70
2023-04-14T22:03:27.865Z,63.70
2023-04-14T22:15:12.728Z,63.80
2023-04-14T22:17:41.530Z,63.90
2023-04-14T22:20:23.074Z,63.90
2023-04-14T22:22:50.550Z,64.00
2023-04-14T22:25:17.785Z,64.00
2023-04-14T22:27:44.954Z,64.00
2023-04-14T22:30:12.444Z,64.00
2023-04-14T22:32:39.841Z,64.00
2023-04-14T22:35:07.435Z,64.00
2023-04-14T22:37:40.817Z,64.10
2023-04-14T22:40:11.438Z,64.00
2023-04-14T22:42:43.249Z,64.10
2023-04-14T22:45:10.499Z,64.10
2023-04-14T22:47:39.655Z,64.20
2023-04-14T22:50:07.514Z,64.20
2023-04-14T22:52:40.601Z,64.20
2023-04-14T22:55:08.361Z,64.20
2023-04-14T22:57:35.827Z,64.30
2023-04-14T23:00:10.397Z,64.40
2023-04-14T23:02:42.329Z,64.50
2023-04-14T23:05:12.645Z,64.50
2023-04-14T23:07:40.036Z,64.70
2023-04-14T23:10:07.588Z,64.70
2023-04-14T23:12:35.057Z,64.90
2023-04-14T23:15:04.306Z,64.90
2023-04-14T23:17:34.543Z,65.10
2023-04-14T23:20:02.471Z,65.10
2023-04-14T23:22:29.750Z,65.20
2023-04-14T23:24:56.899Z,65.30
2023-04-14T23:27:30.397Z,65.40
2023-04-14T23:29:57.552Z,65.60
2023-04-14T23:32:24.646Z,65.60
2023-04-14T23:34:51.960Z,65.80
2023-04-14T23:37:19.149Z,65.90
2023-04-14T23:39:47.043Z,66.00
2023-04-14T23:42:14.379Z,66.10
2023-04-14T23:44:41.332Z,66.20
2023-04-14T23:47:08.630Z,66.30
2023-04-14T23:49:36.108Z,66.40
2023-04-14T23:52:04.543Z,66.50
2023-04-14T23:54:31.833Z,66.60
2023-04-14T23:56:58.981Z,66.70
2023-04-14T23:59:30.991Z,66.80
